createdAt,value
2018-08-18T00:00:21.589Z,77.72
2018-08-18T00:02:50.421Z,77.56
2018-08-18T00:05:19.381Z,76.98
2018-08-18T00:07:48.288Z,75.29
2018-08-18T00:10:19.213Z,75.21
2018-08-18T00:12:48.015Z,75.79
2018-08-18T00:15:16.832Z,74.33
2018-08-18T00:17:45.672Z,77.01
2018-08-18T00:20:17.524Z,78.55
2018-08-18T00:22:46.441Z,79.32
2018-08-18T00:25:15.249Z,79.61
2018-08-18T00:27:43.993Z,79.08
2018-08-18T00:30:17.916Z,79.38
2018-08-18T00:32:46.656Z,80.20
2018-08-18T00:35:15.448Z,80.90
2018-08-18T00:37:44.257Z,80.88
2018-08-18T00:40:13.161Z,80.87
2018-08-18T00:42:42.287Z,81.49
2018-08-18T00:45:12.612Z,82.10
2018-08-18T00:47:41.716Z,82.73
2018-08-18T00:50:11.459Z,83.21
2018-08-18T00:52:40.534Z,82.91
2018-08-18T00:55:09.325Z,83.35
2018-08-18T00:57:38.243Z,83.09
2018-08-18T01:00:07.175Z,83.74
2018-08-18T01:02:36.256Z,84.87
2018-08-18T01:05:05.801Z,85.41
2018-08-18T01:07:34.628Z,85.69
2018-08-18T01:10:03.829Z,85.47
2018-08-18T01:12:32.859Z,84.49
2018-08-18T01:15:01.598Z,84.93
2018-08-18T01:17:30.320Z,84.96
2018-08-18T01:19:59.536Z,85.34
2018-08-18T01:22:28.288Z,84.92
2018-08-18T01:24:57.041Z,85.63
2018-08-18T01:27:25.876Z,86.60
2018-08-18T01:29:59.716Z,85.86
2018-08-18T01:32:29.101Z,86.27
2018-08-18T01:34:57.832Z,86.90
2018-08-18T01:37:26.575Z,87.06
2018-08-18T01:39:56.075Z,86.44
2018-08-18T01:42:24.914Z,85.54
2018-08-18T01:44:55.169Z,84.89
2018-08-18T01:47:24.015Z,85.74
2018-08-18T01:49:52.756Z,86.06
2018-08-18T01:52:23.629Z,86.22
2018-08-18T01:54:52.481Z,87.01
2018-08-18T01:57:22.301Z,87.05
2018-08-18T01:59:51.401Z,87.27
2018-08-18T02:02:23.691Z,87.35
2018-08-18T02:04:52.767Z,87.22
2018-08-18T02:07:32.090Z,88.28
2018-08-18T02:10:00.993Z,88.22
2018-08-18T02:12:30.092Z,88.38
2018-08-18T02:15:00.068Z,88.34
2018-08-18T02:17:32.343Z,89.33
2018-08-18T02:20:01.268Z,88.87
2018-08-18T02:22:30.753Z,88.42
2018-08-18T02:24:59.548Z,89.04
2018-08-18T02:27:28.328Z,89.00
2018-08-18T02:30:23.460Z,89.23
2018-08-18T02:32:52.258Z,89.55
2018-08-18T02:35:22.908Z,89.25
2018-08-18T02:37:51.684Z,89.78
2018-08-18T02:40:20.586Z,88.69
2018-08-18T02:42:49.332Z,89.33
2018-08-18T02:45:18.112Z,89.88
2018-08-18T02:47:46.938Z,89.02
2018-08-18T02:50:15.695Z,89.10
2018-08-18T02:52:44.576Z,88.91
2018-08-18T02:55:13.399Z,89.52
2018-08-18T02:57:43.406Z,90.07
2018-08-18T03:00:19.663Z,90.37
2018-08-18T03:02:48.604Z,91.05
2018-08-18T03:05:17.350Z,90.74
2018-08-18T03:07:49.333Z,89.89
2018-08-18T03:10:23.906Z,89.81
2018-08-18T03:12:56.990Z,89.71
2018-08-18T03:16:05.352Z,89.65
2018-08-18T03:18:54.882Z,89.84
2018-08-18T03:21:29.612Z,90.14
2018-08-18T03:24:24.357Z,90.51
2018-08-18T03:26:55.037Z,90.92
2018-08-18T03:29:24.866Z,91.22
2018-08-18T03:31:53.959Z,91.62
2018-08-18T03:34:24.212Z,91.20
2018-08-18T03:36:54.219Z,91.74
2018-08-18T03:39:40.000Z,91.31
2018-08-18T03:42:08.765Z,91.17
2018-08-18T03:44:42.844Z,91.64
2018-08-18T03:47:11.680Z,91.39
2018-08-18T03:49:40.455Z,91.62
2018-08-18T03:52:09.204Z,91.17
2018-08-18T03:54:37.981Z,91.90
2018-08-18T03:57:06.760Z,92.04
2018-08-18T03:59:35.708Z,92.18
2018-08-18T04:02:04.595Z,92.64
2018-08-18T04:04:34.616Z,92.23
2018-08-18T04:07:04.636Z,92.36
2018-08-18T04:09:34.543Z,93.02
2018-08-18T04:12:11.075Z,92.49
2018-08-18T04:14:41.029Z,92.62
2018-08-18T04:17:20.862Z,92.26
2018-08-18T04:19:49.724Z,92.35
2018-08-18T04:22:18.601Z,91.96
2018-08-18T04:24:48.269Z,91.31
2018-08-18T04:27:26.981Z,91.76
2018-08-18T04:29:55.721Z,92.13
2018-08-18T04:32:24.481Z,91.58
2018-08-18T04:34:53.242Z,91.30
2018-08-18T04:37:21.999Z,91.36
2018-08-18T04:39:50.753Z,91.39
2018-08-18T04:42:19.580Z,91.12
2018-08-18T04:44:48.367Z,91.97
2018-08-18T04:47:28.852Z,91.38
2018-08-18T04:49:58.029Z,91.47
2018-08-18T04:52:26.787Z,91.46
2018-08-18T04:54:55.576Z,91.28
2018-08-18T04:57:24.348Z,90.20
2018-08-18T04:59:53.093Z,89.85
2018-08-18T05:02:21.841Z,89.53
2018-08-18T05:04:50.596Z,89.77
2018-08-18T05:07:19.364Z,89.60
2018-08-18T05:09:48.116Z,89.62
2018-08-18T05:12:16.869Z,88.87
2018-08-18T05:14:45.591Z,88.52
2018-08-18T05:17:14.375Z,87.95
2018-08-18T05:19:44.472Z,87.41
2018-08-18T05:22:13.241Z,87.18
2018-08-18T05:24:42.005Z,86.93
2018-08-18T05:27:15.997Z,87.09
2018-08-18T05:29:44.736Z,87.43
2018-08-18T05:32:13.520Z,87.69
2018-08-18T05:34:42.374Z,88.13
2018-08-18T05:37:11.133Z,88.15
2018-08-18T05:39:39.908Z,87.60
2018-08-18T05:42:08.730Z,87.51
2018-08-18T05:44:37.481Z,88.18
2018-08-18T05:47:06.232Z,88.54
2018-08-18T05:49:34.980Z,87.43
2018-08-18T05:52:03.977Z,88.02
2018-08-18T05:54:32.742Z,87.20
2018-08-18T05:57:01.484Z,85.82
2018-08-18T05:59:30.244Z,85.64
2018-08-18T06:01:59.094Z,84.84
2018-08-18T06:04:27.848Z,85.09
2018-08-18T06:06:56.601Z,85.56
2018-08-18T06:09:25.396Z,84.87
2018-08-18T06:11:54.428Z,85.03
2018-08-18T06:14:23.173Z,84.24
2018-08-18T06:16:51.954Z,84.52
2018-08-18T06:19:20.703Z,83.61
2018-08-18T06:21:49.516Z,84.17
2018-08-18T06:24:18.285Z,83.67
2018-08-18T06:26:47.052Z,82.83
2018-08-18T06:29:16.772Z,82.93
2018-08-18T06:31:57.617Z,82.52
2018-08-18T06:34:27.617Z,82.88
2018-08-18T06:36:56.372Z,82.86
2018-08-18T06:39:25.161Z,82.25
2018-08-18T06:41:54.124Z,82.91
2018-08-18T06:44:26.584Z,83.66
2018-08-18T06:46:55.490Z,84.38
2018-08-18T06:49:24.323Z,83.36
2018-08-18T06:51:53.079Z,83.49
2018-08-18T06:54:21.917Z,83.09
2018-08-18T06:56:50.821Z,82.68
2018-08-18T06:59:19.641Z,80.13
2018-08-18T07:01:49.395Z,79.62
2018-08-18T07:04:21.548Z,78.47
2018-08-18T07:06:50.317Z,77.97
2018-08-18T07:09:19.075Z,78.02
2018-08-18T07:11:47.843Z,75.86
2018-08-18T07:14:16.936Z,76.82
2018-08-18T07:16:45.729Z,77.74
2018-08-18T07:19:14.572Z,76.27
2018-08-18T07:21:43.305Z,78.50
2018-08-18T07:24:12.128Z,76.48
2018-08-18T07:26:40.897Z,75.81
2018-08-18T07:29:09.875Z,77.54
2018-08-18T07:31:38.497Z,77.45
2018-08-18T07:34:07.362Z,77.52
2018-08-18T07:36:36.342Z,76.11
2018-08-18T07:39:05.934Z,76.95
2018-08-18T07:41:34.809Z,76.04
2018-08-18T07:44:03.837Z,75.07
2018-08-18T07:46:35.698Z,74.15
2018-08-18T07:49:05.596Z,74.09
2018-08-18T07:51:35.782Z,74.15
2018-08-18T07:54:05.669Z,73.24
2018-08-18T07:56:35.705Z,73.11
2018-08-18T07:59:04.644Z,72.71
2018-08-18T08:01:33.456Z,73.18
2018-08-18T08:04:03.117Z,73.11
2018-08-18T08:06:31.906Z,71.90
2018-08-18T08:09:01.406Z,72.47
2018-08-18T08:11:30.501Z,71.19
2018-08-18T08:13:59.298Z,71.68
2018-08-18T08:16:28.196Z,69.53
2018-08-18T08:18:57.004Z,69.60
2018-08-18T08:21:25.932Z,69.75
2018-08-18T08:23:55.224Z,67.53
2018-08-18T08:26:24.044Z,69.09
2018-08-18T08:28:52.820Z,70.69
2018-08-18T08:31:21.624Z,69.94
2018-08-18T08:33:50.392Z,68.82
2018-08-18T08:36:19.230Z,70.69
2018-08-18T08:38:56.623Z,69.84
2018-08-18T08:41:27.877Z,69.16
2018-08-18T08:43:56.702Z,70.09
2018-08-18T08:46:25.524Z,69.70
2018-08-18T08:48:56.923Z,70.09
2018-08-18T08:51:26.323Z,69.67
2018-08-18T08:53:56.308Z,69.31
2018-08-18T08:56:30.267Z,66.86
2018-08-18T08:58:59.186Z,67.27
2018-08-18T09:01:27.940Z,67.54
2018-08-18T09:03:56.764Z,66.59
2018-08-18T09:06:25.518Z,66.78
2018-08-18T09:08:58.384Z,66.43
2018-08-18T09:11:28.177Z,67.27
2018-08-18T09:14:06.999Z,66.95
2018-08-18T09:16:37.532Z,67.38
2018-08-18T09:19:07.944Z,67.98
2018-08-18T09:21:44.174Z,68.78
2018-08-18T09:24:14.611Z,68.07
2018-08-18T09:26:50.100Z,67.24
2018-08-18T09:29:19.797Z,67.05
2018-08-18T09:31:48.752Z,65.38
2018-08-18T09:34:18.361Z,66.78
2018-08-18T09:36:49.295Z,67.01
2018-08-18T09:39:28.410Z,66.98
2018-08-18T09:41:58.948Z,67.97
2018-08-18T09:44:35.356Z,66.58
2018-08-18T09:47:05.967Z,67.91
2018-08-18T09:49:36.260Z,68.14
2018-08-18T09:52:05.914Z,65.38
2018-08-18T09:54:36.156Z,67.68
2018-08-18T09:57:06.482Z,64.33
2018-08-18T09:59:37.379Z,64.79
2018-08-18T10:02:07.633Z,64.39
2018-08-18T10:04:37.126Z,65.41
2018-08-18T10:07:06.912Z,63.78
2018-08-18T10:09:37.234Z,64.35
2018-08-18T10:12:06.340Z,62.39
2018-08-18T10:14:35.698Z,63.36
2018-08-18T10:17:06.039Z,63.55
2018-08-18T10:19:39.420Z,62.27
2018-08-18T10:22:09.363Z,64.20
2018-08-18T10:24:39.791Z,62.88
2018-08-18T10:27:08.640Z,60.09
2018-08-18T10:29:37.373Z,61.25
2018-08-18T10:32:06.203Z,59.39
2018-08-18T10:34:34.960Z,55.31
2018-08-18T10:37:07.346Z,57.19
2018-08-18T10:39:37.417Z,55.90
2018-08-18T10:42:12.507Z,57.47
2018-08-18T10:45:02.025Z,57.73
2018-08-18T10:47:33.147Z,57.69
2018-08-18T10:50:13.990Z,56.30
2018-08-18T10:52:53.975Z,57.98
2018-08-18T10:55:23.971Z,56.57
2018-08-18T10:58:07.468Z,57.72
2018-08-18T11:00:38.138Z,56.59
2018-08-18T11:03:09.284Z,57.61
2018-08-18T11:05:39.536Z,56.84
2018-08-18T11:08:10.924Z,56.74
2018-08-18T11:10:41.208Z,54.99
2018-08-18T11:13:11.210Z,55.05
2018-08-18T11:15:39.994Z,55.96
2018-08-18T11:18:09.171Z,57.22
2018-08-18T11:20:38.149Z,57.68
2018-08-18T11:23:14.602Z,58.07
2018-08-18T11:25:50.469Z,57.00
2018-08-18T11:28:21.579Z,54.19
2018-08-18T11:30:55.547Z,55.47
2018-08-18T11:33:37.912Z,55.32
2018-08-18T11:36:10.136Z,53.34
2018-08-18T11:38:38.949Z,54.29
2018-08-18T11:41:07.772Z,54.42
2018-08-18T11:43:46.255Z,54.92
2018-08-18T11:46:15.015Z,53.83
2018-08-18T11:48:43.785Z,52.00
2018-08-18T11:51:12.633Z,53.10
2018-08-18T11:53:52.580Z,53.78
2018-08-18T11:56:21.393Z,52.60
2018-08-18T11:59:21.108Z,52.54
2018-08-18T12:01:52.027Z,51.51
2018-08-18T12:04:22.304Z,48.56
2018-08-18T12:06:57.513Z,49.21
2018-08-18T12:09:26.379Z,48.04
2018-08-18T12:11:55.261Z,50.10
2018-08-18T12:14:24.100Z,48.86
2018-08-18T12:16:52.979Z,48.08
2018-08-18T12:19:21.824Z,46.12
2018-08-18T12:21:50.617Z,45.32
2018-08-18T12:24:20.672Z,47.73
2018-08-18T12:27:00.498Z,45.90
2018-08-18T12:29:30.934Z,47.35
2018-08-18T12:32:00.000Z,47.19
2018-08-18T12:34:28.785Z,46.30
2018-08-18T12:36:57.634Z,45.31
2018-08-18T12:39:26.366Z,47.63
2018-08-18T12:41:55.189Z,44.64
2018-08-18T12:44:28.870Z,45.51
2018-08-18T12:46:57.636Z,45.22
2018-08-18T12:49:26.453Z,44.83
2018-08-18T12:51:55.223Z,42.26
2018-08-18T12:54:24.070Z,43.37
2018-08-18T12:56:52.890Z,44.71
2018-08-18T12:59:21.645Z,45.04
2018-08-18T13:01:51.168Z,43.75
2018-08-18T13:04:21.421Z,44.00
2018-08-18T13:06:51.709Z,42.68
2018-08-18T13:09:21.829Z,41.38
2018-08-18T13:11:52.050Z,43.03
2018-08-18T13:14:23.495Z,43.21
2018-08-18T13:16:52.458Z,42.18
2018-08-18T13:19:23.231Z,44.33
2018-08-18T13:21:52.048Z,45.15
2018-08-18T13:24:20.874Z,45.22
2018-08-18T13:27:00.441Z,44.21
2018-08-18T13:29:29.260Z,43.99
2018-08-18T13:31:58.113Z,44.45
2018-08-18T13:34:26.891Z,43.04
2018-08-18T13:36:55.639Z,44.46
2018-08-18T13:39:24.481Z,47.48
2018-08-18T13:41:53.287Z,45.82
2018-08-18T13:44:28.530Z,45.27
2018-08-18T13:46:57.460Z,44.04
2018-08-18T13:49:27.126Z,44.38
2018-08-18T13:51:56.043Z,43.67
2018-08-18T13:54:24.816Z,45.13
2018-08-18T13:56:53.629Z,46.68
2018-08-18T13:59:48.643Z,46.31
2018-08-18T14:02:17.454Z,45.85
2018-08-18T14:04:47.738Z,45.38
2018-08-18T14:07:17.455Z,43.21
2018-08-18T14:10:18.177Z,43.61
2018-08-18T14:12:47.721Z,45.44
2018-08-18T14:15:17.116Z,45.53
2018-08-18T14:17:45.972Z,47.22
2018-08-18T14:20:14.747Z,47.10
2018-08-18T14:22:43.643Z,46.44
2018-08-18T14:25:12.389Z,48.21
2018-08-18T14:27:43.992Z,46.63
2018-08-18T14:30:12.817Z,46.23
2018-08-18T14:32:41.599Z,46.21
2018-08-18T14:35:10.355Z,45.77
2018-08-18T14:37:40.825Z,46.13
2018-08-18T14:40:16.422Z,46.08
2018-08-18T14:42:46.376Z,46.75
2018-08-18T14:45:17.221Z,48.08
2018-08-18T14:47:47.028Z,48.63
2018-08-18T14:50:26.025Z,47.06
2018-08-18T14:52:55.068Z,47.13
2018-08-18T14:55:24.071Z,47.22
2018-08-18T14:57:59.984Z,47.63
2018-08-18T15:00:28.880Z,46.73
2018-08-18T15:02:57.697Z,47.06
2018-08-18T15:05:26.492Z,46.91
2018-08-18T15:07:57.444Z,48.16
2018-08-18T15:10:37.960Z,47.96
2018-08-18T15:13:07.653Z,46.03
2018-08-18T15:15:36.937Z,45.84
2018-08-18T15:18:07.616Z,44.74
2018-08-18T15:20:37.401Z,46.41
2018-08-18T15:23:07.139Z,46.34
2018-08-18T15:25:36.723Z,47.43
2018-08-18T15:28:07.572Z,46.82
2018-08-18T15:30:38.388Z,45.33
2018-08-18T15:33:08.443Z,45.73
2018-08-18T15:35:39.034Z,45.08
2018-08-18T15:38:09.179Z,45.76
2018-08-18T15:40:38.084Z,45.80
2018-08-18T15:43:07.033Z,45.59
2018-08-18T15:45:55.268Z,46.47
2018-08-18T15:48:24.252Z,45.66
2018-08-18T15:50:53.273Z,46.59
2018-08-18T15:53:45.736Z,44.96
2018-08-18T15:56:14.629Z,45.40
2018-08-18T15:58:45.666Z,46.51
2018-08-18T16:01:14.529Z,45.49
2018-08-18T16:03:43.308Z,44.71
2018-08-18T16:06:12.092Z,43.78
2018-08-18T16:08:40.884Z,46.54
2018-08-18T16:11:09.781Z,44.45
2018-08-18T16:13:38.676Z,44.19
2018-08-18T16:16:07.597Z,45.97
2018-08-18T16:18:36.427Z,43.93
2018-08-18T16:21:14.429Z,43.06
2018-08-18T16:23:43.873Z,45.49
2018-08-18T16:26:13.385Z,45.74
2018-08-18T16:28:43.303Z,44.30
2018-08-18T16:31:12.604Z,44.01
2018-08-18T16:33:41.596Z,41.76
2018-08-18T16:36:10.511Z,42.61
2018-08-18T16:38:39.264Z,41.18
2018-08-18T16:41:08.082Z,41.12
2018-08-18T16:43:38.060Z,41.88
2018-08-18T16:46:29.317Z,42.05
2018-08-18T16:48:58.148Z,43.53
2018-08-18T16:51:27.077Z,42.33
2018-08-18T16:53:56.610Z,44.08
2018-08-18T16:56:28.396Z,43.32
2018-08-18T16:59:01.037Z,44.56
2018-08-18T17:01:29.864Z,43.16
2018-08-18T17:03:58.644Z,45.46
2018-08-18T17:06:27.461Z,45.16
2018-08-18T17:08:56.257Z,43.84
2018-08-18T17:11:26.848Z,43.88
2018-08-18T17:13:55.774Z,44.19
2018-08-18T17:16:25.033Z,44.03
2018-08-18T17:18:54.424Z,44.58
2018-08-18T17:21:23.276Z,44.48
2018-08-18T17:23:52.040Z,44.29
2018-08-18T17:26:20.794Z,43.95
2018-08-18T17:28:49.573Z,44.42
2018-08-18T17:31:18.364Z,43.69
2018-08-18T17:33:47.121Z,44.48
2018-08-18T17:36:15.948Z,45.55
2018-08-18T17:38:44.799Z,45.17
2018-08-18T17:41:13.754Z,45.84
2018-08-18T17:43:44.187Z,46.10
2018-08-18T17:46:15.015Z,46.36
2018-08-18T17:48:49.924Z,45.92
2018-08-18T17:51:20.288Z,46.37
2018-08-18T17:53:56.588Z,46.89
2018-08-18T17:56:26.654Z,46.54
2018-08-18T17:58:57.048Z,46.81
2018-08-18T18:01:27.417Z,47.53
2018-08-18T18:03:57.126Z,46.62
2018-08-18T18:06:27.473Z,48.12
2018-08-18T18:08:57.984Z,48.30
2018-08-18T18:11:29.633Z,48.81
2018-08-18T18:13:58.846Z,49.02
2018-08-18T18:16:29.809Z,49.35
2018-08-18T18:19:00.449Z,49.96
2018-08-18T18:21:31.123Z,50.37
2018-08-18T18:24:01.940Z,50.91
2018-08-18T18:26:33.008Z,50.75
2018-08-18T18:29:01.789Z,51.19
2018-08-18T18:31:30.771Z,51.48
2018-08-18T18:34:03.460Z,51.22
2018-08-18T18:36:35.283Z,52.18
2018-08-18T18:39:06.368Z,52.61
2018-08-18T18:41:35.169Z,52.86
2018-08-18T18:44:04.512Z,52.60
2018-08-18T18:46:33.288Z,53.59
2018-08-18T18:49:07.489Z,53.04
2018-08-18T18:51:38.361Z,53.98
2018-08-18T18:54:08.389Z,53.33
2018-08-18T18:56:37.732Z,53.95
2018-08-18T18:59:06.487Z,54.42
2018-08-18T19:01:36.132Z,54.74
2018-08-18T19:04:06.117Z,54.94
2018-08-18T19:06:40.518Z,55.45
2018-08-18T19:09:09.274Z,56.10
2018-08-18T19:11:38.024Z,57.44
2018-08-18T19:14:08.553Z,56.91
2018-08-18T19:16:38.749Z,57.78
2018-08-18T19:19:07.637Z,56.31
2018-08-18T19:21:36.409Z,56.66
2018-08-18T19:24:11.322Z,55.97
2018-08-18T19:26:52.089Z,56.68
2018-08-18T19:29:23.617Z,56.37
2018-08-18T19:31:55.544Z,56.83
2018-08-18T19:34:25.715Z,56.26
2018-08-18T19:37:05.050Z,56.93
2018-08-18T19:39:35.770Z,56.45
2018-08-18T19:42:16.996Z,56.22
2018-08-18T19:44:51.106Z,55.79
2018-08-18T19:47:26.329Z,56.56
2018-08-18T19:49:56.097Z,56.16
2018-08-18T19:52:25.988Z,56.14
2018-08-18T19:54:56.032Z,56.56
2018-08-18T19:57:29.880Z,57.10
2018-08-18T20:00:07.929Z,56.59
2018-08-18T20:02:59.948Z,57.58
2018-08-18T20:05:28.898Z,57.36
2018-08-18T20:07:58.965Z,57.40
2018-08-18T20:10:27.951Z,58.40
2018-08-18T20:12:56.729Z,58.39
2018-08-18T20:15:25.557Z,58.11
2018-08-18T20:17:54.288Z,58.18
2018-08-18T20:20:27.051Z,57.74
2018-08-18T20:22:55.957Z,58.67
2018-08-18T20:25:24.820Z,60.14
2018-08-18T20:27:55.511Z,59.35
2018-08-18T20:30:26.184Z,59.72
2018-08-18T20:32:56.288Z,60.66
2018-08-18T20:35:27.249Z,60.92
2018-08-18T20:37:55.996Z,62.47
2018-08-18T20:40:27.055Z,61.87
2018-08-18T20:42:57.845Z,63.13
2018-08-18T20:45:32.061Z,62.73
2018-08-18T20:48:02.269Z,63.31
2018-08-18T20:50:32.260Z,63.88
2018-08-18T20:53:06.396Z,63.23
2018-08-18T20:55:36.374Z,64.19
2018-08-18T20:58:06.364Z,64.71
2018-08-18T21:00:36.913Z,64.62
2018-08-18T21:03:11.780Z,65.07
2018-08-18T21:05:41.824Z,65.14
2018-08-18T21:08:16.602Z,66.24
2018-08-18T21:10:47.276Z,66.89
2018-08-18T21:13:20.624Z,66.40
2018-08-18T21:15:50.941Z,66.35
2018-08-18T21:18:21.422Z,66.65
2018-08-18T21:20:51.182Z,66.31
2018-08-18T21:23:39.650Z,66.20
2018-08-18T21:26:08.584Z,66.83
2018-08-18T21:28:37.342Z,67.76
2018-08-18T21:31:06.411Z,66.90
2018-08-18T21:33:35.507Z,68.33
2018-08-18T21:36:04.382Z,66.90
2018-08-18T21:38:33.408Z,67.23
2018-08-18T21:41:02.436Z,66.81
2018-08-18T21:43:33.348Z,66.96
2018-08-18T21:46:02.137Z,67.44
2018-08-18T21:48:42.066Z,68.77
2018-08-18T21:51:10.837Z,67.81
2018-08-18T21:53:39.696Z,68.62
2018-08-18T21:56:08.473Z,69.36
2018-08-18T21:58:37.279Z,69.71
2018-08-18T22:01:11.333Z,68.78
2018-08-18T22:03:40.234Z,68.90
2018-08-18T22:06:09.138Z,69.36
2018-08-18T22:08:37.912Z,71.50
2018-08-18T22:11:06.729Z,71.00
2018-08-18T22:13:41.986Z,70.77
2018-08-18T22:16:11.142Z,70.48
2018-08-18T22:18:41.454Z,71.98
2018-08-18T22:21:14.743Z,71.08
2018-08-18T22:23:43.517Z,70.71
2018-08-18T22:26:20.332Z,71.10
2018-08-18T22:28:58.701Z,70.43
2018-08-18T22:31:28.274Z,70.58
2018-08-18T22:33:58.049Z,70.75
2018-08-18T22:36:28.612Z,70.65
2018-08-18T22:38:57.987Z,70.42
2018-08-18T22:41:26.788Z,69.97
2018-08-18T22:43:56.295Z,70.29
2018-08-18T22:46:25.208Z,69.94
2018-08-18T22:48:54.381Z,71.13
2018-08-18T22:51:23.136Z,71.02
2018-08-18T22:53:53.305Z,70.81
2018-08-18T22:56:22.109Z,69.97
2018-08-18T22:58:56.920Z,71.58
2018-08-18T23:01:25.666Z,72.60
2018-08-18T23:03:54.833Z,71.74
2018-08-18T23:06:23.604Z,71.12
2018-08-18T23:08:52.381Z,71.48
2018-08-18T23:11:21.178Z,70.87
2018-08-18T23:13:49.984Z,71.56
2018-08-18T23:16:18.760Z,71.38
2018-08-18T23:18:47.565Z,72.37
2018-08-18T23:21:30.897Z,71.84
2018-08-18T23:24:01.849Z,72.48
2018-08-18T23:26:30.615Z,71.82
2018-08-18T23:28:59.373Z,73.64
2018-08-18T23:31:28.164Z,72.40
2018-08-18T23:33:56.920Z,73.30
2018-08-18T23:36:25.729Z,73.51
2018-08-18T23:38:58.372Z,74.24
2018-08-18T23:41:27.168Z,73.30
2018-08-18T23:43:55.982Z,75.07
2018-08-18T23:46:24.721Z,73.66
2018-08-18T23:48:54.277Z,73.59
2018-08-18T23:51:30.524Z,73.44
2018-08-18T23:53:59.290Z,73.53
2018-08-18T23:56:29.632Z,73.94
2018-08-18T23:58:58.868Z,75.04
